Wan Hai 273 — 9V7586 — position and weather

sailwx.info

Track history (hours):
 
Tides and Currents Weather Stations Pressure Air Temp Water Temp Dewpoint Dewpoint Depression Visibility Wind Speed Wind Dir Waves Ship Positions

Wan Hai 273

Last reported at 2014-Jul-29 08:33 UTC. Time now 2014-Jul-29 08:50 UTC.
Position N 22°23' E 113°54'.

Length 172 m; draft 8.3 m.

Type: Cargo ship. MMSI: 566406000.

Date/timePositionNaut miles runAvg speedWind from/ knotsBaromVisibWave heightAir tempDewpointWater temp
2014-Jul-29 08:33N 22°23' E 113°54'4 4.5
2014-Jul-29 07:33N 22°27' E 113°53'0 0.0
2014-Jul-29 06:29N 22°27' E 113°53'0 0.0
2014-Jul-29 05:32N 22°27' E 113°53'0 0.0
2014-Jul-29 04:32N 22°27' E 113°53'0 0.0
2014-Jul-29 03:32N 22°27' E 113°53'0 0.0
2014-Jul-29 02:32N 22°27' E 113°53'0 0.0
2014-Jul-29 01:26N 22°27' E 113°53'0 0.0
2014-Jul-29 00:29N 22°27' E 113°53'0 0.0
2014-Jul-28 23:32N 22°27' E 113°53'0 0.0
2014-Jul-28 22:32N 22°27' E 113°53'0 0.0
2014-Jul-28 21:32N 22°27' E 113°53'5 5.4
2014-Jul-28 20:32N 22°22' E 113°55'1111.4
2014-Jul-28 19:33N 22°19' E 114°07'1 0.7
2014-Jul-28 18:30N 22°19' E 114°07'0 0.0
2014-Jul-28 16:30N 22°19' E 114°07'0 0.0
2014-Jul-28 15:18N 22°19' E 114°07'0 0.0
2014-Jul-28 14:30N 22°19' E 114°07'0 0.0
2014-Jul-28 13:24N 22°19' E 114°07'0 0.0
2014-Jul-28 11:24N 22°19' E 114°07'0 0.0
2014-Jul-28 10:12N 22°19' E 114°07'0 0.0
2014-Jul-28 09:30N 22°19' E 114°07'4 3.6
2014-Jul-28 08:30N 22°16' E 114°07'13510.3
2014-Jul-27 19:19N 22°38' E 116°31'3016.7
2014-Jul-27 17:31N 22°52' E 117°00'1516.0
2014-Jul-27 16:33N 22°60' E 117°15'3015.2
2014-Jul-27 14:33N 23°15' E 117°43'1515.3
2014-Jul-27 13:33N 23°24' E 117°57'1515.5
2014-Jul-27 12:33N 23°33' E 118°11'1615.7
2014-Jul-27 11:33N 23°43' E 118°24'1615.8
2014-Jul-27 10:33N 23°55' E 118°35'1615.9
2014-Jul-27 09:33N 24°06' E 118°47'1615.9
2014-Jul-27 08:33N 24°18' E 118°59'1616.3
2014-Jul-27 07:33N 24°30' E 119°12'3616.5
2014-Jul-27 05:24N 24°55' E 119°39'28616.5
2014-Jul-26 12:04N 28°57' E 122°30'815.5
2014-Jul-26 11:32N 29°05' E 122°34'1616.4
2014-Jul-26 10:33N 29°20' E 122°40'1716.9
2014-Jul-26 09:33N 29°35' E 122°47'1817.5
2014-Jul-26 08:33N 29°51' E 122°55'1817.7
2014-Jul-26 07:32N 30°09' E 123°02'1717.7
2014-Jul-26 06:33N 30°26' E 123°01'1717.1
2014-Jul-26 05:33N 30°43' E 122°58'1717.3
2014-Jul-26 04:33N 30°58' E 122°49'2215.0
2014-Jul-26 03:07N 31°06' E 122°25'914.5
2014-Jul-26 02:31N 31°08' E 122°15'1714.6
2014-Jul-26 01:21N 31°15' E 121°57'1214.8
2014-Jul-26 00:33N 31°19' E 121°44'5 3.5
2014-Jul-25 23:14N 31°20' E 121°39'0 0.0
2014-Jul-25 22:32N 31°20' E 121°39'0 0.0
2014-Jul-25 21:20N 31°20' E 121°39'0 0.0
2014-Jul-25 20:26N 31°20' E 121°39'0 0.0
2014-Jul-25 19:26N 31°20' E 121°39'0 0.0
2014-Jul-25 17:32N 31°20' E 121°39'0 0.0
2014-Jul-25 16:26N 31°20' E 121°39'0 0.0
2014-Jul-25 15:26N 31°20' E 121°39'0 0.0
2014-Jul-25 14:32N 31°20' E 121°39'0 0.0
2014-Jul-25 13:26N 31°20' E 121°39'0 0.4
2014-Jul-25 12:33N 31°21' E 121°39'9 9.0
2014-Jul-25 11:33N 31°17' E 121°48'1512.2
2014-Jul-25 10:18N 31°14' E 122°06'1012.7
2014-Jul-25 09:31N 31°08' E 122°15'1110.9
2014-Jul-25 08:33N 31°04' E 122°27'7 6.8
2014-Jul-25 07:33N 30°60' E 122°33'1010.1
2014-Jul-25 06:33N 30°57' E 122°44'7 7.4
2014-Jul-25 05:33N 30°50' E 122°46'0 0.0
2014-Jul-25 04:28N 30°50' E 122°46'0 0.0
2014-Jul-25 03:28N 30°50' E 122°46'0 0.1
2014-Jul-25 02:28N 30°50' E 122°46'0 0.1
2014-Jul-25 01:28N 30°50' E 122°46'1 1.6
2014-Jul-25 00:33N 30°51' E 122°45'2 2.3
2014-Jul-24 23:33N 30°53' E 122°45'7 6.4
2014-Jul-24 22:32N 30°60' E 122°45'3 1.0
2014-Jul-24 19:17N 31°03' E 122°46'0 0.4
2014-Jul-24 18:33N 31°03' E 122°46'40013.3
2014-Jul-23 12:33N 35°02' E 129°08'5 4.8
2014-Jul-23 11:31N 35°06' E 129°04'0 0.0
2014-Jul-23 10:31N 35°06' E 129°04'0 0.0
2014-Jul-23 09:31N 35°06' E 129°04'0 0.0
2014-Jul-23 08:25N 35°06' E 129°04'0 0.0
2014-Jul-23 07:25N 35°06' E 129°04'0 0.0
2014-Jul-23 06:31N 35°06' E 129°04'0 0.0
2014-Jul-23 05:28N 35°06' E 129°04'0 0.0
2014-Jul-23 04:31N 35°06' E 129°04'0 0.0
2014-Jul-23 03:31N 35°06' E 129°04'7 7.2
2014-Jul-23 02:33N 35°02' E 129°11'83 2.6
2014-Jul-21 18:30N 34°03' E 130°22'1716.8
2014-Jul-21 17:31N 34°03' E 130°42'21011.7
2014-Jul-20 23:31N 34°06' E 134°56'1616.7
2014-Jul-20 22:34N 34°22' E 134°59'1818.3
2014-Jul-20 21:33N 34°35' E 135°15'6 5.7
2014-Jul-20 20:32N 34°41' E 135°15'0 0.0
2014-Jul-20 19:33N 34°41' E 135°15'0 0.0
2014-Jul-20 18:32N 34°41' E 135°15'0 0.0
2014-Jul-20 17:32N 34°41' E 135°15'0 0.0
2014-Jul-20 16:32N 34°41' E 135°15'0 0.0
2014-Jul-20 15:33N 34°41' E 135°15'0 0.0
2014-Jul-20 14:32N 34°41' E 135°15'0 0.0
2014-Jul-20 13:33N 34°41' E 135°15'0 0.0
2014-Jul-20 12:32N 34°41' E 135°15'0 0.0
2014-Jul-20 11:27N 34°41' E 135°15'0 0.1
2014-Jul-20 10:33N 34°41' E 135°15'9 8.6
2014-Jul-20 09:33N 34°39' E 135°25'0 0.4
2014-Jul-20 08:28N 34°39' E 135°26'0 0.0
2014-Jul-20 07:28N 34°39' E 135°26'0 0.0
2014-Jul-20 06:28N 34°39' E 135°26'0 0.0
2014-Jul-20 05:22N 34°39' E 135°26'0 0.0
2014-Jul-20 04:22N 34°39' E 135°26'0 0.0
2014-Jul-20 03:28N 34°39' E 135°26'0 0.0
2014-Jul-20 02:16N 34°39' E 135°26'0 0.0
2014-Jul-20 01:22N 34°39' E 135°26'0 0.0
2014-Jul-20 00:22N 34°39' E 135°26'0 0.0
2014-Jul-19 23:22N 34°39' E 135°26'0 0.1
2014-Jul-19 22:29N 34°39' E 135°26'8 9.2
2014-Jul-19 21:33N 34°34' E 135°17'1717.3
2014-Jul-19 20:33N 34°21' E 135°03'1414.1
2014-Jul-19 19:34N 34°07' E 134°60'10 9.7
2014-Jul-19 18:33N 33°58' E 134°59'  
Track history (hours):
 
Tides and Currents Weather Stations Pressure Air Temp Water Temp Dewpoint Dewpoint Depression Visibility Wind Speed Wind Dir Waves Ship Positions

Wan Hai 273

Last reported at 2014-Jul-29 08:33 UTC. Time now 2014-Jul-29 08:50 UTC.
Position N 22°23' E 113°54'.

Length 172 m; draft 8.3 m.

Type: Cargo ship. MMSI: 566406000.

Date/timePositionNaut miles runAvg speedWind from/ knotsBaromVisibWave heightAir tempDewpointWater temp
2014-Jul-29 08:33N 22°23' E 113°54'4 4.5
2014-Jul-29 07:33N 22°27' E 113°53'0 0.0
2014-Jul-29 06:29N 22°27' E 113°53'0 0.0
2014-Jul-29 05:32N 22°27' E 113°53'0 0.0
2014-Jul-29 04:32N 22°27' E 113°53'0 0.0
2014-Jul-29 03:32N 22°27' E 113°53'0 0.0
2014-Jul-29 02:32N 22°27' E 113°53'0 0.0
2014-Jul-29 01:26N 22°27' E 113°53'0 0.0
2014-Jul-29 00:29N 22°27' E 113°53'0 0.0
2014-Jul-28 23:32N 22°27' E 113°53'0 0.0
2014-Jul-28 22:32N 22°27' E 113°53'0 0.0
2014-Jul-28 21:32N 22°27' E 113°53'5 5.4
2014-Jul-28 20:32N 22°22' E 113°55'1111.4
2014-Jul-28 19:33N 22°19' E 114°07'1 0.7
2014-Jul-28 18:30N 22°19' E 114°07'0 0.0
2014-Jul-28 16:30N 22°19' E 114°07'0 0.0
2014-Jul-28 15:18N 22°19' E 114°07'0 0.0
2014-Jul-28 14:30N 22°19' E 114°07'0 0.0
2014-Jul-28 13:24N 22°19' E 114°07'0 0.0
2014-Jul-28 11:24N 22°19' E 114°07'0 0.0
2014-Jul-28 10:12N 22°19' E 114°07'0 0.0
2014-Jul-28 09:30N 22°19' E 114°07'4 3.6
2014-Jul-28 08:30N 22°16' E 114°07'13510.3
2014-Jul-27 19:19N 22°38' E 116°31'3016.7
2014-Jul-27 17:31N 22°52' E 117°00'1516.0
2014-Jul-27 16:33N 22°60' E 117°15'3015.2
2014-Jul-27 14:33N 23°15' E 117°43'1515.3
2014-Jul-27 13:33N 23°24' E 117°57'1515.5
2014-Jul-27 12:33N 23°33' E 118°11'1615.7
2014-Jul-27 11:33N 23°43' E 118°24'1615.8
2014-Jul-27 10:33N 23°55' E 118°35'1615.9
2014-Jul-27 09:33N 24°06' E 118°47'1615.9
2014-Jul-27 08:33N 24°18' E 118°59'1616.3
2014-Jul-27 07:33N 24°30' E 119°12'3616.5
2014-Jul-27 05:24N 24°55' E 119°39'28616.5
2014-Jul-26 12:04N 28°57' E 122°30'815.5
2014-Jul-26 11:32N 29°05' E 122°34'1616.4
2014-Jul-26 10:33N 29°20' E 122°40'1716.9
2014-Jul-26 09:33N 29°35' E 122°47'1817.5
2014-Jul-26 08:33N 29°51' E 122°55'1817.7
2014-Jul-26 07:32N 30°09' E 123°02'1717.7
2014-Jul-26 06:33N 30°26' E 123°01'1717.1
2014-Jul-26 05:33N 30°43' E 122°58'1717.3
2014-Jul-26 04:33N 30°58' E 122°49'2215.0
2014-Jul-26 03:07N 31°06' E 122°25'914.5
2014-Jul-26 02:31N 31°08' E 122°15'1714.6
2014-Jul-26 01:21N 31°15' E 121°57'1214.8
2014-Jul-26 00:33N 31°19' E 121°44'5 3.5
2014-Jul-25 23:14N 31°20' E 121°39'0 0.0
2014-Jul-25 22:32N 31°20' E 121°39'0 0.0
2014-Jul-25 21:20N 31°20' E 121°39'0 0.0
2014-Jul-25 20:26N 31°20' E 121°39'0 0.0
2014-Jul-25 19:26N 31°20' E 121°39'0 0.0
2014-Jul-25 17:32N 31°20' E 121°39'0 0.0
2014-Jul-25 16:26N 31°20' E 121°39'0 0.0
2014-Jul-25 15:26N 31°20' E 121°39'0 0.0
2014-Jul-25 14:32N 31°20' E 121°39'0 0.0
2014-Jul-25 13:26N 31°20' E 121°39'0 0.4
2014-Jul-25 12:33N 31°21' E 121°39'9 9.0
2014-Jul-25 11:33N 31°17' E 121°48'1512.2
2014-Jul-25 10:18N 31°14' E 122°06'1012.7
2014-Jul-25 09:31N 31°08' E 122°15'1110.9
2014-Jul-25 08:33N 31°04' E 122°27'7 6.8
2014-Jul-25 07:33N 30°60' E 122°33'1010.1
2014-Jul-25 06:33N 30°57' E 122°44'7 7.4
2014-Jul-25 05:33N 30°50' E 122°46'0 0.0
2014-Jul-25 04:28N 30°50' E 122°46'0 0.0
2014-Jul-25 03:28N 30°50' E 122°46'0 0.1
2014-Jul-25 02:28N 30°50' E 122°46'0 0.1
2014-Jul-25 01:28N 30°50' E 122°46'1 1.6
2014-Jul-25 00:33N 30°51' E 122°45'2 2.3
2014-Jul-24 23:33N 30°53' E 122°45'7 6.4
2014-Jul-24 22:32N 30°60' E 122°45'3 1.0
2014-Jul-24 19:17N 31°03' E 122°46'0 0.4
2014-Jul-24 18:33N 31°03' E 122°46'40013.3
2014-Jul-23 12:33N 35°02' E 129°08'5 4.8
2014-Jul-23 11:31N 35°06' E 129°04'0 0.0
2014-Jul-23 10:31N 35°06' E 129°04'0 0.0
2014-Jul-23 09:31N 35°06' E 129°04'0 0.0
2014-Jul-23 08:25N 35°06' E 129°04'0 0.0
2014-Jul-23 07:25N 35°06' E 129°04'0 0.0
2014-Jul-23 06:31N 35°06' E 129°04'0 0.0
2014-Jul-23 05:28N 35°06' E 129°04'0 0.0
2014-Jul-23 04:31N 35°06' E 129°04'0 0.0
2014-Jul-23 03:31N 35°06' E 129°04'7 7.2
2014-Jul-23 02:33N 35°02' E 129°11'83 2.6
2014-Jul-21 18:30N 34°03' E 130°22'1716.8
2014-Jul-21 17:31N 34°03' E 130°42'21011.7
2014-Jul-20 23:31N 34°06' E 134°56'1616.7
2014-Jul-20 22:34N 34°22' E 134°59'1818.3
2014-Jul-20 21:33N 34°35' E 135°15'6 5.7
2014-Jul-20 20:32N 34°41' E 135°15'0 0.0
2014-Jul-20 19:33N 34°41' E 135°15'0 0.0
2014-Jul-20 18:32N 34°41' E 135°15'0 0.0
2014-Jul-20 17:32N 34°41' E 135°15'0 0.0
2014-Jul-20 16:32N 34°41' E 135°15'0 0.0
2014-Jul-20 15:33N 34°41' E 135°15'0 0.0
2014-Jul-20 14:32N 34°41' E 135°15'0 0.0
2014-Jul-20 13:33N 34°41' E 135°15'0 0.0
2014-Jul-20 12:32N 34°41' E 135°15'0 0.0
2014-Jul-20 11:27N 34°41' E 135°15'0 0.1
2014-Jul-20 10:33N 34°41' E 135°15'9 8.6
2014-Jul-20 09:33N 34°39' E 135°25'0 0.4
2014-Jul-20 08:28N 34°39' E 135°26'0 0.0
2014-Jul-20 07:28N 34°39' E 135°26'0 0.0
2014-Jul-20 06:28N 34°39' E 135°26'0 0.0
2014-Jul-20 05:22N 34°39' E 135°26'0 0.0
2014-Jul-20 04:22N 34°39' E 135°26'0 0.0
2014-Jul-20 03:28N 34°39' E 135°26'0 0.0
2014-Jul-20 02:16N 34°39' E 135°26'0 0.0
2014-Jul-20 01:22N 34°39' E 135°26'0 0.0
2014-Jul-20 00:22N 34°39' E 135°26'0 0.0
2014-Jul-19 23:22N 34°39' E 135°26'0 0.1
2014-Jul-19 22:29N 34°39' E 135°26'8 9.2
2014-Jul-19 21:33N 34°34' E 135°17'1717.3
2014-Jul-19 20:33N 34°21' E 135°03'1414.1
2014-Jul-19 19:34N 34°07' E 134°60'10 9.7
2014-Jul-19 18:33N 33°58' E 134°59'  

Dump ship's entire track history